sensor_id;sensor_type;location;lat;lon;timestamp;pressure;altitude;pressure_sealevel;temperature;humidity
12949;BME280;6539;49.476;8.484;2023-04-25T00:00:04;99933.41;;;13.30;59.85
12949;BME280;6539;49.476;8.484;2023-04-25T00:02:33;99936.16;;;13.30;60.07
12949;BME280;6539;49.476;8.484;2023-04-25T00:05:02;99931.50;;;13.27;60.02
12949;BME280;6539;49.476;8.484;2023-04-25T00:07:31;99936.16;;;13.30;59.72
12949;BME280;6539;49.476;8.484;2023-04-25T00:09:58;99928.16;;;13.20;59.60
12949;BME280;6539;49.476;8.484;2023-04-25T00:12:28;99935.84;;;13.12;60.72
12949;BME280;6539;49.476;8.484;2023-04-25T00:14:58;99936.63;;;13.13;61.56
12949;BME280;6539;49.476;8.484;2023-04-25T00:17:25;99934.97;;;13.15;61.08
12949;BME280;6539;49.476;8.484;2023-04-25T00:19:54;99940.38;;;13.19;61.44
12949;BME280;6539;49.476;8.484;2023-04-25T00:22:23;99931.34;;;13.18;61.17
12949;BME280;6539;49.476;8.484;2023-04-25T00:24:51;99936.19;;;13.14;61.19
12949;BME280;6539;49.476;8.484;2023-04-25T00:27:19;99927.72;;;13.21;61.04
12949;BME280;6539;49.476;8.484;2023-04-25T00:29:44;99927.28;;;13.23;60.12
12949;BME280;6539;49.476;8.484;2023-04-25T00:32:11;99929.94;;;13.26;60.17
12949;BME280;6539;49.476;8.484;2023-04-25T00:34:36;99923.06;;;13.18;59.17
12949;BME280;6539;49.476;8.484;2023-04-25T00:37:02;99925.16;;;13.14;59.37
12949;BME280;6539;49.476;8.484;2023-04-25T00:39:28;99927.13;;;13.14;59.57
12949;BME280;6539;49.476;8.484;2023-04-25T00:41:54;99926.00;;;13.11;59.92
12949;BME280;6539;49.476;8.484;2023-04-25T00:44:20;99921.03;;;13.06;60.06
12949;BME280;6539;49.476;8.484;2023-04-25T00:46:48;99925.78;;;13.06;60.51
12949;BME280;6539;49.476;8.484;2023-04-25T00:49:18;99920.00;;;13.00;59.95
12949;BME280;6539;49.476;8.484;2023-04-25T00:51:46;99916.47;;;12.99;60.18
12949;BME280;6539;49.476;8.484;2023-04-25T00:54:15;99914.81;;;13.02;60.54
12949;BME280;6539;49.476;8.484;2023-04-25T00:56:42;99911.56;;;13.07;60.36
12949;BME280;6539;49.476;8.484;2023-04-25T00:59:09;99907.94;;;13.10;59.97
12949;BME280;6539;49.476;8.484;2023-04-25T01:01:35;99914.75;;;13.06;60.02
12949;BME280;6539;49.476;8.484;2023-04-25T01:04:01;99908.19;;;12.99;60.26
12949;BME280;6539;49.476;8.484;2023-04-25T01:06:30;99911.47;;;13.11;60.57
12949;BME280;6539;49.476;8.484;2023-04-25T01:08:57;99902.94;;;13.05;60.10
12949;BME280;6539;49.476;8.484;2023-04-25T01:11:23;99899.47;;;13.01;60.25
12949;BME280;6539;49.476;8.484;2023-04-25T01:13:51;99909.31;;;13.02;60.69
12949;BME280;6539;49.476;8.484;2023-04-25T01:16:17;99902.44;;;13.10;61.03
12949;BME280;6539;49.476;8.484;2023-04-25T01:18:45;99903.88;;;13.15;61.02
12949;BME280;6539;49.476;8.484;2023-04-25T01:21:12;99902.66;;;13.16;60.97
12949;BME280;6539;49.476;8.484;2023-04-25T01:23:40;99898.28;;;13.18;60.84
12949;BME280;6539;49.476;8.484;2023-04-25T01:26:09;99895.50;;;13.18;61.24
12949;BME280;6539;49.476;8.484;2023-04-25T01:28:37;99889.31;;;13.14;61.52
12949;BME280;6539;49.476;8.484;2023-04-25T01:31:04;99897.94;;;13.16;61.61
12949;BME280;6539;49.476;8.484;2023-04-25T01:33:35;99896.41;;;13.15;61.65
12949;BME280;6539;49.476;8.484;2023-04-25T01:36:01;99901.97;;;13.12;61.59
12949;BME280;6539;49.476;8.484;2023-04-25T01:38:30;99897.44;;;13.05;61.70
12949;BME280;6539;49.476;8.484;2023-04-25T01:40:58;99893.97;;;13.01;61.98
12949;BME280;6539;49.476;8.484;2023-04-25T01:43:24;99901.03;;;13.02;62.08
12949;BME280;6539;49.476;8.484;2023-04-25T01:45:51;99899.25;;;12.95;62.41
12949;BME280;6539;49.476;8.484;2023-04-25T01:48:20;99900.97;;;12.89;63.18
12949;BME280;6539;49.476;8.484;2023-04-25T01:50:47;99907.06;;;12.97;64.15
12949;BME280;6539;49.476;8.484;2023-04-25T01:53:14;99908.53;;;13.01;64.69
12949;BME280;6539;49.476;8.484;2023-04-25T01:55:42;99908.47;;;13.05;65.16
12949;BME280;6539;49.476;8.484;2023-04-25T01:58:13;99913.22;;;13.05;65.69
12949;BME280;6539;49.476;8.484;2023-04-25T02:00:39;99917.06;;;13.07;66.21
12949;BME280;6539;49.476;8.484;2023-04-25T02:03:06;99916.72;;;12.89;66.18
12949;BME280;6539;49.476;8.484;2023-04-25T02:05:43;99915.16;;;12.88;66.28
12949;BME280;6539;49.476;8.484;2023-04-25T02:08:09;99908.88;;;12.87;66.59
12949;BME280;6539;49.476;8.484;2023-04-25T02:10:35;99904.94;;;12.88;66.62
12949;BME280;6539;49.476;8.484;2023-04-25T02:13:02;99911.28;;;12.85;66.56
12949;BME280;6539;49.476;8.484;2023-04-25T02:15:28;99912.63;;;12.81;67.08
12949;BME280;6539;49.476;8.484;2023-04-25T02:17:56;99907.84;;;12.81;67.08
12949;BME280;6539;49.476;8.484;2023-04-25T02:20:25;99913.13;;;12.76;67.16
12949;BME280;6539;49.476;8.484;2023-04-25T02:22:52;99906.94;;;12.72;67.90
12949;BME280;6539;49.476;8.484;2023-04-25T02:25:19;99908.47;;;12.73;68.05
12949;BME280;6539;49.476;8.484;2023-04-25T02:27:46;99907.69;;;12.72;68.58
12949;BME280;6539;49.476;8.484;2023-04-25T02:30:20;99905.47;;;12.67;68.44
12949;BME280;6539;49.476;8.484;2023-04-25T02:32:46;99901.44;;;12.72;68.57
12949;BME280;6539;49.476;8.484;2023-04-25T02:35:16;99902.44;;;12.62;68.87
12949;BME280;6539;49.476;8.484;2023-04-25T02:37:45;99897.81;;;12.59;69.32
12949;BME280;6539;49.476;8.484;2023-04-25T02:40:11;99897.81;;;12.59;69.31
12949;BME280;6539;49.476;8.484;2023-04-25T02:42:37;99897.38;;;12.60;69.71
12949;BME280;6539;49.476;8.484;2023-04-25T02:45:03;99900.41;;;12.66;69.96
12949;BME280;6539;49.476;8.484;2023-04-25T02:47:31;99894.53;;;12.64;69.70
12949;BME280;6539;49.476;8.484;2023-04-25T02:50:01;99898.84;;;12.65;70.50
12949;BME280;6539;49.476;8.484;2023-04-25T02:52:30;99896.25;;;12.58;69.83
12949;BME280;6539;49.476;8.484;2023-04-25T02:54:58;99900.56;;;12.43;70.59
12949;BME280;6539;49.476;8.484;2023-04-25T02:57:24;99898.25;;;12.41;70.70
12949;BME280;6539;49.476;8.484;2023-04-25T02:59:50;99888.34;;;12.27;72.19
12949;BME280;6539;49.476;8.484;2023-04-25T03:02:15;99892.13;;;12.34;72.13
12949;BME280;6539;49.476;8.484;2023-04-25T03:04:41;99895.94;;;12.40;71.74
12949;BME280;6539;49.476;8.484;2023-04-25T03:07:10;99888.34;;;12.44;71.90
12949;BME280;6539;49.476;8.484;2023-04-25T03:09:38;99881.63;;;12.45;71.36
12949;BME280;6539;49.476;8.484;2023-04-25T03:12:04;99882.56;;;12.38;71.72
12949;BME280;6539;49.476;8.484;2023-04-25T03:14:35;99877.16;;;12.35;71.85
12949;BME280;6539;49.476;8.484;2023-04-25T03:17:01;99881.03;;;12.37;71.68
12949;BME280;6539;49.476;8.484;2023-04-25T03:19:27;99882.50;;;12.42;71.54
12949;BME280;6539;49.476;8.484;2023-04-25T03:21:52;99881.91;;;12.50;71.43
12949;BME280;6539;49.476;8.484;2023-04-25T03:24:19;99886.63;;;12.50;71.34
12949;BME280;6539;49.476;8.484;2023-04-25T03:26:44;99884.66;;;12.50;71.91
12949;BME280;6539;49.476;8.484;2023-04-25T03:29:10;99882.16;;;12.56;71.56
12949;BME280;6539;49.476;8.484;2023-04-25T03:31:45;99889.88;;;12.45;70.88
12949;BME280;6539;49.476;8.484;2023-04-25T03:34:11;99884.97;;;12.36;71.49
12949;BME280;6539;49.476;8.484;2023-04-25T03:36:37;99880.69;;;12.35;71.45
12949;BME280;6539;49.476;8.484;2023-04-25T03:39:03;99876.22;;;12.41;71.45
12949;BME280;6539;49.476;8.484;2023-04-25T03:41:28;99879.66;;;12.45;71.75
12949;BME280;6539;49.476;8.484;2023-04-25T03:44:02;99872.44;;;12.51;71.48
12949;BME280;6539;49.476;8.484;2023-04-25T03:46:27;99876.81;;;12.49;71.46
12949;BME280;6539;49.476;8.484;2023-04-25T03:48:55;99878.38;;;12.50;71.74
12949;BME280;6539;49.476;8.484;2023-04-25T03:51:23;99883.88;;;12.50;71.32
12949;BME280;6539;49.476;8.484;2023-04-25T03:53:49;99887.22;;;12.41;71.92
12949;BME280;6539;49.476;8.484;2023-04-25T03:56:17;99896.63;;;12.44;72.30
12949;BME280;6539;49.476;8.484;2023-04-25T03:58:46;99896.19;;;12.45;71.87
12949;BME280;6539;49.476;8.484;2023-04-25T04:01:11;99883.63;;;12.44;71.86
12949;BME280;6539;49.476;8.484;2023-04-25T04:03:39;99901.59;;;12.49;71.76
12949;BME280;6539;49.476;8.484;2023-04-25T04:06:08;99885.16;;;12.45;71.67
12949;BME280;6539;49.476;8.484;2023-04-25T04:08:34;99893.31;;;12.49;71.46
12949;BME280;6539;49.476;8.484;2023-04-25T04:11:00;99893.69;;;12.51;71.27
12949;BME280;6539;49.476;8.484;2023-04-25T04:13:28;99891.88;;;12.44;71.91
12949;BME280;6539;49.476;8.484;2023-04-25T04:15:56;99898.78;;;12.52;71.76
12949;BME280;6539;49.476;8.484;2023-04-25T04:18:25;99898.59;;;12.59;71.60
12949;BME280;6539;49.476;8.484;2023-04-25T04:20:50;99893.84;;;12.60;71.73
12949;BME280;6539;49.476;8.484;2023-04-25T04:23:16;99890.94;;;12.51;71.02
12949;BME280;6539;49.476;8.484;2023-04-25T04:25:42;99900.56;;;12.43;71.67
12949;BME280;6539;49.476;8.484;2023-04-25T04:28:08;99903.31;;;12.43;71.55
12949;BME280;6539;49.476;8.484;2023-04-25T04:30:34;99902.38;;;12.49;71.52
12949;BME280;6539;49.476;8.484;2023-04-25T04:33:03;99901.25;;;12.47;70.79
12949;BME280;6539;49.476;8.484;2023-04-25T04:35:29;99906.06;;;12.43;71.00
12949;BME280;6539;49.476;8.484;2023-04-25T04:37:57;99916.72;;;12.41;70.81
12949;BME280;6539;49.476;8.484;2023-04-25T04:40:22;99907.09;;;12.49;71.16
12949;BME280;6539;49.476;8.484;2023-04-25T04:42:48;99912.19;;;12.50;71.12
12949;BME280;6539;49.476;8.484;2023-04-25T04:45:15;99906.34;;;12.48;71.12
12949;BME280;6539;49.476;8.484;2023-04-25T04:47:41;99913.31;;;12.53;71.10
12949;BME280;6539;49.476;8.484;2023-04-25T04:50:11;99908.16;;;12.55;70.24
12949;BME280;6539;49.476;8.484;2023-04-25T04:52:38;99919.06;;;12.58;70.45
12949;BME280;6539;49.476;8.484;2023-04-25T04:55:05;99923.28;;;12.63;70.47
12949;BME280;6539;49.476;8.484;2023-04-25T04:57:32;99924.47;;;12.62;70.29
12949;BME280;6539;49.476;8.484;2023-04-25T04:59:59;99924.47;;;12.62;70.26
12949;BME280;6539;49.476;8.484;2023-04-25T05:02:25;99925.34;;;12.59;70.82
12949;BME280;6539;49.476;8.484;2023-04-25T05:04:55;99928.00;;;12.62;70.60
12949;BME280;6539;49.476;8.484;2023-04-25T05:07:21;99931.53;;;12.63;70.23
12949;BME280;6539;49.476;8.484;2023-04-25T05:09:47;99935.50;;;12.62;70.07
12949;BME280;6539;49.476;8.484;2023-04-25T05:12:15;99933.69;;;12.55;71.13
12949;BME280;6539;49.476;8.484;2023-04-25T05:14:41;99931.72;;;12.56;70.65
12949;BME280;6539;49.476;8.484;2023-04-25T05:17:06;99937.56;;;12.58;70.49
12949;BME280;6539;49.476;8.484;2023-04-25T05:19:37;99928.00;;;12.62;70.37
12949;BME280;6539;49.476;8.484;2023-04-25T05:22:05;99937.75;;;12.67;70.48
12949;BME280;6539;49.476;8.484;2023-04-25T05:24:31;99929.97;;;12.62;69.42
12949;BME280;6539;49.476;8.484;2023-04-25T05:27:01;99934.75;;;12.61;69.81
12949;BME280;6539;49.476;8.484;2023-04-25T05:29:31;99935.44;;;12.65;69.67
12949;BME280;6539;49.476;8.484;2023-04-25T05:32:01;99939.03;;;12.62;69.57
12949;BME280;6539;49.476;8.484;2023-04-25T05:34:29;99946.69;;;12.55;69.74
12949;BME280;6539;49.476;8.484;2023-04-25T05:36:57;99944.53;;;12.62;70.75
12949;BME280;6539;49.476;8.484;2023-04-25T05:39:25;99943.25;;;12.83;73.20
12949;BME280;6539;49.476;8.484;2023-04-25T05:41:52;99941.66;;;13.30;72.48
12949;BME280;6539;49.476;8.484;2023-04-25T05:44:17;99945.63;;;13.58;72.28
12949;BME280;6539;49.476;8.484;2023-04-25T05:46:43;99948.25;;;13.49;68.10
12949;BME280;6539;49.476;8.484;2023-04-25T05:49:14;99942.50;;;13.43;68.49
12949;BME280;6539;49.476;8.484;2023-04-25T05:51:40;99943.13;;;13.35;66.86
12949;BME280;6539;49.476;8.484;2023-04-25T05:54:06;99941.94;;;13.48;67.29
12949;BME280;6539;49.476;8.484;2023-04-25T05:56:33;99953.91;;;13.58;68.05
12949;BME280;6539;49.476;8.484;2023-04-25T05:59:02;99951.50;;;13.72;67.95
12949;BME280;6539;49.476;8.484;2023-04-25T06:01:28;99956.16;;;13.75;67.30
12949;BME280;6539;49.476;8.484;2023-04-25T06:03:59;99965.59;;;13.91;66.87
12949;BME280;6539;49.476;8.484;2023-04-25T06:06:25;99962.03;;;13.77;65.53
12949;BME280;6539;49.476;8.484;2023-04-25T06:08:52;99960.53;;;13.60;64.96
12949;BME280;6539;49.476;8.484;2023-04-25T06:11:23;99959.72;;;13.47;64.91
12949;BME280;6539;49.476;8.484;2023-04-25T06:13:52;99963.72;;;13.30;65.08
12949;BME280;6539;49.476;8.484;2023-04-25T06:16:17;99960.88;;;13.18;65.46
12949;BME280;6539;49.476;8.484;2023-04-25T06:18:45;99963.19;;;13.03;66.09
12949;BME280;6539;49.476;8.484;2023-04-25T06:21:11;99962.19;;;12.97;66.22
12949;BME280;6539;49.476;8.484;2023-04-25T06:23:39;99966.66;;;12.91;66.17
12949;BME280;6539;49.476;8.484;2023-04-25T06:26:05;99962.44;;;12.86;65.70
12949;BME280;6539;49.476;8.484;2023-04-25T06:28:31;99965.31;;;12.83;66.34
12949;BME280;6539;49.476;8.484;2023-04-25T06:30:57;99972.00;;;12.82;66.21
12949;BME280;6539;49.476;8.484;2023-04-25T06:33:25;99974.31;;;12.83;66.21
12949;BME280;6539;49.476;8.484;2023-04-25T06:35:52;99974.75;;;12.82;65.68
12949;BME280;6539;49.476;8.484;2023-04-25T06:38:20;99979.06;;;12.83;65.68
12949;BME280;6539;49.476;8.484;2023-04-25T06:40:46;99975.19;;;12.80;65.68
12949;BME280;6539;49.476;8.484;2023-04-25T06:43:12;99987.84;;;12.78;65.16
12949;BME280;6539;49.476;8.484;2023-04-25T06:45:40;99984.06;;;12.72;62.63
12949;BME280;6539;49.476;8.484;2023-04-25T06:48:07;99987.22;;;12.70;61.72
12949;BME280;6539;49.476;8.484;2023-04-25T06:50:37;99989.03;;;12.61;61.03
12949;BME280;6539;49.476;8.484;2023-04-25T06:53:02;99990.75;;;12.55;60.21
12949;BME280;6539;49.476;8.484;2023-04-25T06:55:28;100004.94;;;12.53;60.58
12949;BME280;6539;49.476;8.484;2023-04-25T06:57:56;100002.88;;;12.57;61.07
12949;BME280;6539;49.476;8.484;2023-04-25T07:00:24;100006.41;;;12.58;61.23
12949;BME280;6539;49.476;8.484;2023-04-25T07:02:50;100006.06;;;12.56;61.58
12949;BME280;6539;49.476;8.484;2023-04-25T07:05:18;100017.75;;;12.60;62.43
12949;BME280;6539;49.476;8.484;2023-04-25T07:07:44;100018.88;;;12.62;63.20
12949;BME280;6539;49.476;8.484;2023-04-25T07:10:14;100019.75;;;12.59;63.05
12949;BME280;6539;49.476;8.484;2023-04-25T07:12:40;100015.78;;;12.60;63.87
12949;BME280;6539;49.476;8.484;2023-04-25T07:15:07;100023.69;;;12.58;64.07
12949;BME280;6539;49.476;8.484;2023-04-25T07:17:37;100024.06;;;12.60;64.10
12949;BME280;6539;49.476;8.484;2023-04-25T07:20:04;100018.09;;;12.62;63.42
12949;BME280;6539;49.476;8.484;2023-04-25T07:22:36;100022.06;;;12.61;63.04
12949;BME280;6539;49.476;8.484;2023-04-25T07:25:02;100015.78;;;12.60;63.00
12949;BME280;6539;49.476;8.484;2023-04-25T07:27:30;100018.53;;;12.60;62.10
12949;BME280;6539;49.476;8.484;2023-04-25T07:29:56;100022.44;;;12.63;61.53
12949;BME280;6539;49.476;8.484;2023-04-25T07:32:22;100029.84;;;12.66;61.06
12949;BME280;6539;49.476;8.484;2023-04-25T07:34:50;100036.53;;;12.65;60.93
12949;BME280;6539;49.476;8.484;2023-04-25T07:37:16;100040.13;;;12.62;60.27
12949;BME280;6539;49.476;8.484;2023-04-25T07:39:46;100030.69;;;12.63;59.77
12949;BME280;6539;49.476;8.484;2023-04-25T07:42:12;100029.47;;;12.64;59.67
12949;BME280;6539;49.476;8.484;2023-04-25T07:44:43;100032.59;;;12.66;60.11
12949;BME280;6539;49.476;8.484;2023-04-25T07:47:11;100038.50;;;12.64;60.18
12949;BME280;6539;49.476;8.484;2023-04-25T07:49:37;100036.97;;;12.63;60.90
12949;BME280;6539;49.476;8.484;2023-04-25T07:52:05;100046.00;;;12.64;60.67
12949;BME280;6539;49.476;8.484;2023-04-25T07:54:35;100047.47;;;12.68;59.27
12949;BME280;6539;49.476;8.484;2023-04-25T07:57:01;100044.31;;;12.70;59.12
12949;BME280;6539;49.476;8.484;2023-04-25T07:59:28;100052.38;;;12.77;58.48
12949;BME280;6539;49.476;8.484;2023-04-25T08:01:53;100057.03;;;12.80;57.62
12949;BME280;6539;49.476;8.484;2023-04-25T08:04:19;100061.72;;;12.83;57.89
12949;BME280;6539;49.476;8.484;2023-04-25T08:06:45;100068.59;;;12.91;57.52
12949;BME280;6539;49.476;8.484;2023-04-25T08:09:13;100068.34;;;13.01;56.59
12949;BME280;6539;49.476;8.484;2023-04-25T08:11:40;100074.91;;;13.08;56.59
12949;BME280;6539;49.476;8.484;2023-04-25T08:14:08;100077.97;;;13.13;55.84
12949;BME280;6539;49.476;8.484;2023-04-25T08:16:34;100085.00;;;13.14;55.94
12949;BME280;6539;49.476;8.484;2023-04-25T08:19:00;100081.31;;;13.21;56.06
12949;BME280;6539;49.476;8.484;2023-04-25T08:21:29;100084.47;;;13.35;55.49
12949;BME280;6539;49.476;8.484;2023-04-25T08:23:55;100092.06;;;13.47;55.40
12949;BME280;6539;49.476;8.484;2023-04-25T08:26:26;100092.38;;;13.65;54.85
12949;BME280;6539;49.476;8.484;2023-04-25T08:28:54;100099.91;;;13.94;53.97
12949;BME280;6539;49.476;8.484;2023-04-25T08:31:22;100097.22;;;14.06;53.32
12949;BME280;6539;49.476;8.484;2023-04-25T08:33:50;100106.41;;;14.16;52.90
12949;BME280;6539;49.476;8.484;2023-04-25T08:36:20;100111.84;;;14.19;52.20
12949;BME280;6539;49.476;8.484;2023-04-25T08:38:46;100111.91;;;14.32;52.35
12949;BME280;6539;49.476;8.484;2023-04-25T08:41:16;100112.03;;;14.41;52.36
12949;BME280;6539;49.476;8.484;2023-04-25T08:43:49;100112.75;;;14.58;52.18
12949;BME280;6539;49.476;8.484;2023-04-25T08:46:18;100110.16;;;14.79;51.52
12949;BME280;6539;49.476;8.484;2023-04-25T08:48:46;100122.84;;;14.89;51.05
12949;BME280;6539;49.476;8.484;2023-04-25T08:51:24;100121.09;;;15.08;50.56
12949;BME280;6539;49.476;8.484;2023-04-25T08:53:56;100118.44;;;15.17;48.34
12949;BME280;6539;49.476;8.484;2023-04-25T08:56:22;100124.63;;;15.21;47.47
12949;BME280;6539;49.476;8.484;2023-04-25T08:58:51;100127.97;;;15.28;47.47
12949;BME280;6539;49.476;8.484;2023-04-25T09:01:19;100119.88;;;15.47;46.86
12949;BME280;6539;49.476;8.484;2023-04-25T09:03:45;100131.78;;;15.69;46.41
12949;BME280;6539;49.476;8.484;2023-04-25T09:06:15;100128.44;;;15.86;45.48
12949;BME280;6539;49.476;8.484;2023-04-25T09:08:45;100129.53;;;15.89;44.70
12949;BME280;6539;49.476;8.484;2023-04-25T09:11:13;100133.13;;;15.98;44.71
12949;BME280;6539;49.476;8.484;2023-04-25T09:13:41;100132.94;;;16.27;44.67
12949;BME280;6539;49.476;8.484;2023-04-25T09:16:07;100133.38;;;16.47;44.55
12949;BME280;6539;49.476;8.484;2023-04-25T09:18:35;100144.16;;;16.67;43.38
12949;BME280;6539;49.476;8.484;2023-04-25T09:21:10;100144.34;;;16.72;42.54
12949;BME280;6539;49.476;8.484;2023-04-25T09:23:44;100152.53;;;16.76;43.03
12949;BME280;6539;49.476;8.484;2023-04-25T09:26:19;100154.66;;;16.72;42.96
12949;BME280;6539;49.476;8.484;2023-04-25T09:28:45;100152.53;;;16.54;43.58
12949;BME280;6539;49.476;8.484;2023-04-25T09:31:24;100155.50;;;16.38;43.75
12949;BME280;6539;49.476;8.484;2023-04-25T09:33:59;100175.88;;;16.10;44.29
12949;BME280;6539;49.476;8.484;2023-04-25T09:36:34;100169.59;;;15.97;44.22
12949;BME280;6539;49.476;8.484;2023-04-25T09:39:02;100162.63;;;15.92;45.20
12949;BME280;6539;49.476;8.484;2023-04-25T09:41:29;100178.91;;;15.90;44.59
12949;BME280;6539;49.476;8.484;2023-04-25T09:43:57;100183.47;;;15.84;44.21
12949;BME280;6539;49.476;8.484;2023-04-25T09:46:24;100178.19;;;15.65;44.05
12949;BME280;6539;49.476;8.484;2023-04-25T09:48:51;100186.38;;;15.56;43.94
12949;BME280;6539;49.476;8.484;2023-04-25T09:51:19;100188.63;;;15.48;44.24
12949;BME280;6539;49.476;8.484;2023-04-25T09:53:47;100193.03;;;15.46;44.29
12949;BME280;6539;49.476;8.484;2023-04-25T09:56:16;100197.00;;;15.45;45.10
12949;BME280;6539;49.476;8.484;2023-04-25T09:58:47;100195.66;;;15.37;45.39
12949;BME280;6539;49.476;8.484;2023-04-25T10:01:16;100199.09;;;15.41;46.02
12949;BME280;6539;49.476;8.484;2023-04-25T10:03:45;100203.44;;;15.54;45.95
12949;BME280;6539;49.476;8.484;2023-04-25T10:06:22;100209.38;;;15.90;44.92
12949;BME280;6539;49.476;8.484;2023-04-25T10:08:54;100216.31;;;16.42;44.39
12949;BME280;6539;49.476;8.484;2023-04-25T10:11:22;100205.00;;;16.92;42.25
12949;BME280;6539;49.476;8.484;2023-04-25T10:13:50;100208.34;;;17.09;41.92
12949;BME280;6539;49.476;8.484;2023-04-25T10:16:21;100215.66;;;17.24;41.11
12949;BME280;6539;49.476;8.484;2023-04-25T10:18:48;100211.25;;;17.36;40.92
12949;BME280;6539;49.476;8.484;2023-04-25T10:21:18;100213.31;;;17.44;40.98
12949;BME280;6539;49.476;8.484;2023-04-25T10:23:46;100209.59;;;17.47;41.25
12949;BME280;6539;49.476;8.484;2023-04-25T10:26:16;100214.34;;;17.38;41.05
12949;BME280;6539;49.476;8.484;2023-04-25T10:28:59;100215.03;;;17.20;41.03
12949;BME280;6539;49.476;8.484;2023-04-25T10:31:25;100215.06;;;16.99;41.25
12949;BME280;6539;49.476;8.484;2023-04-25T10:33:51;100215.84;;;16.77;41.70
12949;BME280;6539;49.476;8.484;2023-04-25T10:36:22;100207.97;;;16.54;42.12
12949;BME280;6539;49.476;8.484;2023-04-25T10:38:52;100212.66;;;16.45;42.42
12949;BME280;6539;49.476;8.484;2023-04-25T10:41:19;100214.22;;;16.33;42.54
12949;BME280;6539;49.476;8.484;2023-04-25T10:43:47;100213.72;;;16.26;42.73
12949;BME280;6539;49.476;8.484;2023-04-25T10:46:29;100223.03;;;16.19;42.97
12949;BME280;6539;49.476;8.484;2023-04-25T10:48:58;100211.97;;;16.19;42.53
12949;BME280;6539;49.476;8.484;2023-04-25T10:51:26;100209.06;;;16.23;42.15
12949;BME280;6539;49.476;8.484;2023-04-25T10:59:06;100227.34;;;16.20;41.55
12949;BME280;6539;49.476;8.484;2023-04-25T11:01:41;100221.84;;;16.08;41.82
12949;BME280;6539;49.476;8.484;2023-04-25T11:04:33;100228.28;;;15.92;41.81
12949;BME280;6539;49.476;8.484;2023-04-25T11:07:16;100230.44;;;15.75;42.56
12949;BME280;6539;49.476;8.484;2023-04-25T11:09:46;100229.66;;;15.75;42.82
12949;BME280;6539;49.476;8.484;2023-04-25T11:12:14;100225.88;;;15.69;42.60
12949;BME280;6539;49.476;8.484;2023-04-25T11:14:41;100235.06;;;15.66;42.53
12949;BME280;6539;49.476;8.484;2023-04-25T11:17:10;100233.53;;;15.65;42.17
12949;BME280;6539;49.476;8.484;2023-04-25T11:19:36;100233.09;;;15.66;42.40
12949;BME280;6539;49.476;8.484;2023-04-25T11:22:03;100237.84;;;15.66;41.79
12949;BME280;6539;49.476;8.484;2023-04-25T11:24:34;100240.19;;;15.55;41.58
12949;BME280;6539;49.476;8.484;2023-04-25T11:27:10;100233.97;;;15.51;42.33
12949;BME280;6539;49.476;8.484;2023-04-25T11:29:36;100236.19;;;15.56;42.78
12949;BME280;6539;49.476;8.484;2023-04-25T11:32:02;100239.84;;;15.65;42.63
12949;BME280;6539;49.476;8.484;2023-04-25T11:34:30;100233.53;;;15.77;42.70
12949;BME280;6539;49.476;8.484;2023-04-25T11:36:56;100244.56;;;15.90;42.38
12949;BME280;6539;49.476;8.484;2023-04-25T11:39:24;100242.88;;;16.05;42.27
12949;BME280;6539;49.476;8.484;2023-04-25T11:41:53;100250.84;;;16.16;42.23
12949;BME280;6539;49.476;8.484;2023-04-25T11:44:22;100249.41;;;16.24;42.07
12949;BME280;6539;49.476;8.484;2023-04-25T11:46:48;100251.59;;;16.29;41.83
12949;BME280;6539;49.476;8.484;2023-04-25T11:49:16;100259.47;;;16.30;41.35
12949;BME280;6539;49.476;8.484;2023-04-25T11:51:47;100253.16;;;16.30;41.63
12949;BME280;6539;49.476;8.484;2023-04-25T11:54:16;100261.88;;;16.28;41.73
12949;BME280;6539;49.476;8.484;2023-04-25T11:56:45;100260.81;;;16.26;41.62
12949;BME280;6539;49.476;8.484;2023-04-25T11:59:12;100262.91;;;16.22;41.61
12949;BME280;6539;49.476;8.484;2023-04-25T12:01:49;100262.38;;;16.14;41.26
12949;BME280;6539;49.476;8.484;2023-04-25T12:04:20;100257.63;;;16.15;41.65
12949;BME280;6539;49.476;8.484;2023-04-25T12:06:49;100261.72;;;16.10;41.39
12949;BME280;6539;49.476;8.484;2023-04-25T12:09:28;100266.34;;;16.13;41.52
12949;BME280;6539;49.476;8.484;2023-04-25T12:11:59;100263.84;;;16.06;41.12
12949;BME280;6539;49.476;8.484;2023-04-25T12:14:31;100276.34;;;15.98;40.55
12949;BME280;6539;49.476;8.484;2023-04-25T12:17:04;100284.09;;;16.03;40.96
12949;BME280;6539;49.476;8.484;2023-04-25T12:19:38;100282.56;;;16.02;40.24
12949;BME280;6539;49.476;8.484;2023-04-25T12:22:27;100276.69;;;16.00;40.00
12949;BME280;6539;49.476;8.484;2023-04-25T12:24:53;100275.25;;;15.95;40.00
12949;BME280;6539;49.476;8.484;2023-04-25T12:27:21;100274.47;;;15.95;40.35
12949;BME280;6539;49.476;8.484;2023-04-25T12:29:56;100272.03;;;15.97;40.04
12949;BME280;6539;49.476;8.484;2023-04-25T12:32:23;100277.44;;;16.00;40.50
12949;BME280;6539;49.476;8.484;2023-04-25T12:34:49;100271.81;;;16.04;40.07
12949;BME280;6539;49.476;8.484;2023-04-25T12:37:15;100272.16;;;16.06;39.92
12949;BME280;6539;49.476;8.484;2023-04-25T12:39:41;100271.88;;;16.13;39.81
12949;BME280;6539;49.476;8.484;2023-04-25T12:42:12;100276.56;;;16.16;39.75
12949;BME280;6539;49.476;8.484;2023-04-25T12:44:38;100291.63;;;16.15;39.86
12949;BME280;6539;49.476;8.484;2023-04-25T12:47:04;100280.88;;;16.04;40.20
12949;BME280;6539;49.476;8.484;2023-04-25T12:49:31;100285.00;;;16.00;40.12
12949;BME280;6539;49.476;8.484;2023-04-25T12:51:59;100287.66;;;15.91;40.40
12949;BME280;6539;49.476;8.484;2023-04-25T12:54:25;100282.47;;;15.80;41.09
12949;BME280;6539;49.476;8.484;2023-04-25T12:56:53;100280.03;;;15.82;41.13
12949;BME280;6539;49.476;8.484;2023-04-25T12:59:24;100285.09;;;15.96;41.22
12949;BME280;6539;49.476;8.484;2023-04-25T13:01:50;100282.91;;;16.04;41.18
12949;BME280;6539;49.476;8.484;2023-04-25T13:04:16;100285.75;;;16.13;40.90
12949;BME280;6539;49.476;8.484;2023-04-25T13:06:41;100288.41;;;16.17;40.18
12949;BME280;6539;49.476;8.484;2023-04-25T13:09:10;100282.22;;;16.13;40.22
12949;BME280;6539;49.476;8.484;2023-04-25T13:11:37;100289.63;;;16.03;40.33
12949;BME280;6539;49.476;8.484;2023-04-25T13:14:07;100286.34;;;15.95;41.01